createdAt,value
2022-12-20T09:21:34.606Z,0.17
2022-12-20T09:23:10.818Z,0.3
2022-12-20T09:24:50.608Z,0.3
2022-12-20T09:26:30.354Z,0.27
2022-12-20T09:28:10.112Z,0.24
2022-12-20T09:29:49.882Z,0.23
2022-12-20T09:31:29.642Z,0.25
2022-12-20T09:33:09.409Z,0.28
2022-12-20T09:34:49.165Z,0.32
2022-12-20T09:36:28.923Z,0.37
2022-12-20T09:38:08.696Z,0.42
2022-12-20T09:39:48.480Z,0.46
2022-12-20T09:41:28.224Z,0.5
2022-12-20T09:43:07.977Z,0.5
2022-12-20T09:44:47.750Z,0.51
2022-12-20T09:46:27.600Z,0.54
2022-12-20T09:48:07.288Z,0.52
2022-12-20T09:49:47.028Z,0.52
2022-12-20T09:51:26.802Z,0.49
2022-12-20T09:53:06.565Z,0.49
2022-12-20T09:54:46.338Z,0.49
2022-12-20T09:56:26.110Z,0.49
2022-12-20T09:58:05.850Z,0.51
2022-12-20T09:59:45.655Z,0.52
2022-12-20T10:01:25.388Z,0.52
2022-12-20T10:03:05.174Z,0.52
2022-12-20T10:04:44.916Z,0.52
2022-12-20T10:06:24.677Z,0.61
2022-12-20T10:08:04.452Z,0.74
2022-12-20T10:09:44.214Z,0.71
2022-12-20T10:11:23.981Z,1.66
2022-12-20T10:13:03.741Z,1.58
2022-12-20T10:14:43.498Z,1.56
2022-12-20T10:16:23.257Z,1.63
2022-12-20T10:18:03.040Z,1.8
2022-12-20T10:19:42.788Z,1.88
2022-12-20T10:21:22.550Z,1.72
2022-12-20T10:23:02.314Z,1.31
2022-12-20T10:24:42.082Z,1.22
2022-12-20T10:26:21.853Z,1.08
2022-12-20T10:28:01.596Z,1.03
2022-12-20T10:29:41.379Z,1.04
2022-12-20T10:31:21.133Z,1.07
2022-12-20T10:33:00.917Z,1.11
2022-12-20T10:34:40.665Z,1.22
2022-12-20T10:36:20.427Z,1.37
2022-12-20T10:38:00.197Z,1.44
2022-12-20T10:39:39.970Z,1.44
2022-12-20T10:41:19.724Z,1.55
2022-12-20T10:42:59.473Z,1.52
2022-12-20T10:44:39.272Z,1.55
2022-12-20T10:46:19.011Z,1.56
2022-12-20T10:47:58.784Z,1.79
2022-12-20T10:49:38.527Z,1.55
2022-12-20T10:51:18.322Z,1.57
2022-12-20T10:52:58.063Z,1.9
2022-12-20T10:54:37.831Z,2.06
2022-12-20T10:56:17.589Z,2.27
2022-12-20T10:57:57.370Z,2.07
2022-12-20T10:59:37.110Z,1.93
2022-12-20T11:01:16.868Z,2
2022-12-20T11:02:56.658Z,1.87
2022-12-20T11:04:36.551Z,1.86
2022-12-20T11:06:16.178Z,1.94
2022-12-20T11:07:55.944Z,1.62
2022-12-20T11:09:35.703Z,1.37
2022-12-20T11:11:15.486Z,1.32
2022-12-20T11:12:55.238Z,1.15
2022-12-20T11:14:34.998Z,1.03
2022-12-20T11:16:14.760Z,0.99
2022-12-20T11:17:54.550Z,0.97
2022-12-20T11:19:34.293Z,0.98
2022-12-20T11:21:14.059Z,1.02
2022-12-20T11:22:53.813Z,1.01
2022-12-20T11:24:33.646Z,0.97
2022-12-20T11:26:13.343Z,0.96
2022-12-20T11:27:53.101Z,0.95
2022-12-20T11:29:32.877Z,1.07
2022-12-20T11:31:12.639Z,1.35
2022-12-20T11:32:52.422Z,1.34
2022-12-20T11:34:32.151Z,1.29
2022-12-20T11:36:11.937Z,1.16
2022-12-20T11:37:51.718Z,0.99
2022-12-20T11:39:31.446Z,0.86
2022-12-20T11:41:11.232Z,0.98
2022-12-20T11:42:50.991Z,1.03
2022-12-20T11:44:30.770Z,1.04
2022-12-20T11:46:10.499Z,1.11
2022-12-20T11:47:50.280Z,1.28
2022-12-20T11:49:30.037Z,1.27
2022-12-20T11:51:09.819Z,1.3
2022-12-20T11:52:49.570Z,1.42
2022-12-20T11:54:29.327Z,1.24
2022-12-20T11:56:09.104Z,1.07
2022-12-20T11:57:48.862Z,0.85
2022-12-20T11:59:28.612Z,0.57
2022-12-20T12:01:08.383Z,0.26
2022-12-20T12:02:48.151Z,0.26
2022-12-20T12:04:27.915Z,0.33
2022-12-20T12:06:07.684Z,0.4
2022-12-20T12:07:47.446Z,0.4
2022-12-20T12:09:27.210Z,0.38
2022-12-20T12:11:06.979Z,0.36
2022-12-20T12:12:46.736Z,0.33
2022-12-20T12:14:26.514Z,0.3
2022-12-20T12:16:06.270Z,0.29
2022-12-20T12:17:46.039Z,0.3
2022-12-20T12:19:25.791Z,0.29
2022-12-20T12:21:05.563Z,0.28
2022-12-20T12:22:45.317Z,0.29
2022-12-20T12:24:25.080Z,0.3
2022-12-20T12:26:04.852Z,0.3
2022-12-20T12:27:44.600Z,0.28
2022-12-20T12:29:24.388Z,0.25
2022-12-20T12:31:04.137Z,0.24
2022-12-20T12:32:43.906Z,0.24
2022-12-20T12:34:23.727Z,0.25
2022-12-20T12:36:03.446Z,0.24
2022-12-20T12:37:43.180Z,0.27
2022-12-20T12:39:23.000Z,0.26
2022-12-20T12:41:02.728Z,0.26
2022-12-20T12:42:42.492Z,0.31
2022-12-20T12:44:22.241Z,0.28
2022-12-20T12:46:02.010Z,0.27
2022-12-20T12:47:41.787Z,0.27
2022-12-20T12:49:21.530Z,0.27
2022-12-20T12:51:01.297Z,0.29
2022-12-20T12:52:41.058Z,0.3
2022-12-20T12:54:20.848Z,0.29
2022-12-20T12:56:00.589Z,0.27
2022-12-20T12:57:40.365Z,0.24
2022-12-20T12:59:20.121Z,0.21
2022-12-20T13:00:59.888Z,0.2
2022-12-20T13:02:39.650Z,0.22
2022-12-20T13:04:19.408Z,0.26
2022-12-20T13:05:59.212Z,0.29
2022-12-20T13:07:38.943Z,0.31
2022-12-20T13:09:18.697Z,0.29
2022-12-20T13:10:58.463Z,0.26
2022-12-20T13:12:38.231Z,0.32
2022-12-20T13:14:17.999Z,0.25
2022-12-20T13:15:57.767Z,0.22
2022-12-20T13:19:17.302Z,0.22
2022-12-20T13:20:57.039Z,0.19
2022-12-20T13:22:36.825Z,0.16
2022-12-20T13:24:16.588Z,0.13
2022-12-20T13:25:56.349Z,0.11
2022-12-20T13:27:36.119Z,0.11
2022-12-20T13:29:15.867Z,0.1
2022-12-20T13:30:55.628Z,0.1
2022-12-20T13:32:35.407Z,0.09
2022-12-20T13:34:15.185Z,0.09
2022-12-20T13:35:54.936Z,0.08
2022-12-20T13:37:34.694Z,0.07
2022-12-20T13:39:14.460Z,0.08
2022-12-20T13:40:54.217Z,0.07
2022-12-20T13:42:33.999Z,0.07
2022-12-20T13:44:13.750Z,0.06
2022-12-20T13:45:53.517Z,0.06
2022-12-20T13:47:33.288Z,0.05
2022-12-20T13:49:13.069Z,0.03
2022-12-20T13:50:52.796Z,0.01
2022-12-20T13:52:32.565Z,0.02
2022-12-20T13:54:12.337Z,0.03
2022-12-20T13:55:52.098Z,0.01
2022-12-20T13:57:31.850Z,0.03
2022-12-20T13:59:11.623Z,0.02
2022-12-20T14:00:51.387Z,0
2022-12-20T14:02:31.142Z,0
2022-12-20T14:04:10.905Z,0
2022-12-20T14:05:50.685Z,0
2022-12-20T14:07:30.450Z,0
2022-12-20T14:09:10.240Z,0
2022-12-20T14:10:49.972Z,0
2022-12-20T14:12:29.732Z,0
2022-12-20T14:14:09.499Z,0
2022-12-20T14:15:49.275Z,0
2022-12-20T14:17:29.018Z,0
2022-12-20T14:19:08.779Z,0
2022-12-20T14:20:48.559Z,0
2022-12-20T14:22:28.332Z,0
2022-12-20T14:24:08.091Z,0
2022-12-20T14:25:47.917Z,0
2022-12-20T14:27:27.608Z,0
2022-12-20T14:29:07.383Z,0
2022-12-20T14:30:47.133Z,0
2022-12-20T14:32:26.886Z,0
2022-12-20T14:34:06.656Z,0
2022-12-20T14:35:46.422Z,0
2022-12-20T14:37:26.194Z,0
2022-12-20T14:39:05.947Z,0
2022-12-20T14:40:45.722Z,0
2022-12-20T14:42:25.482Z,0
2022-12-20T14:44:05.233Z,0
2022-12-20T14:45:45.012Z,0
2022-12-20T14:47:24.768Z,0
2022-12-20T14:49:04.531Z,0
2022-12-20T14:50:44.291Z,0
2022-12-20T14:52:24.050Z,0
2022-12-20T14:54:03.830Z,0
2022-12-20T14:55:43.718Z,0
2022-12-20T14:57:23.350Z,0
2022-12-20T14:59:03.112Z,0
2022-12-20T15:00:42.893Z,0
2022-12-20T15:02:22.659Z,0
2022-12-20T15:04:02.406Z,0
2022-12-20T15:05:42.169Z,0
2022-12-20T15:07:21.929Z,0
2022-12-20T15:09:01.766Z,0
2022-12-20T15:10:41.463Z,0
2022-12-20T15:12:21.223Z,0
2022-12-20T15:14:00.992Z,0
2022-12-20T15:15:40.767Z,0
2022-12-20T15:17:20.537Z,0
2022-12-20T15:19:00.309Z,0
2022-12-20T15:20:40.055Z,0
2022-12-20T15:22:19.800Z,0
2022-12-20T15:23:59.592Z,0
2022-12-20T15:25:39.362Z,0
2022-12-20T15:27:19.109Z,0
2022-12-20T15:28:58.894Z,0
2022-12-20T15:30:38.633Z,0
2022-12-20T15:32:18.404Z,0
2022-12-20T15:33:58.161Z,0
2022-12-20T15:35:37.927Z,0
2022-12-20T15:37:17.679Z,0
2022-12-20T15:38:57.448Z,0
2022-12-20T15:40:37.233Z,0
2022-12-20T15:42:17.036Z,0
2022-12-20T15:43:56.742Z,0
2022-12-20T15:45:36.521Z,0
2022-12-20T15:47:16.259Z,0
2022-12-20T15:48:56.018Z,0
2022-12-20T15:50:35.811Z,0
2022-12-20T15:52:15.545Z,0
2022-12-20T15:53:55.321Z,0
2022-12-20T15:55:35.084Z,0
2022-12-20T15:57:14.871Z,0
2022-12-20T15:58:54.616Z,0
2022-12-20T16:00:34.380Z,0
2022-12-20T16:02:14.152Z,0
2022-12-20T16:03:53.919Z,0
2022-12-20T16:05:33.682Z,0
2022-12-20T16:07:13.433Z,0
2022-12-20T16:08:53.200Z,0
2022-12-20T16:10:32.955Z,0
2022-12-20T16:12:12.725Z,0
2022-12-20T16:13:52.508Z,0
2022-12-20T16:15:32.267Z,0
2022-12-20T16:17:12.026Z,0
2022-12-20T16:18:51.781Z,0
2022-12-20T16:20:31.544Z,0
2022-12-20T16:22:11.302Z,0
2022-12-20T16:23:51.168Z,0
2022-12-20T16:25:30.892Z,0
2022-12-20T16:27:10.606Z,0
2022-12-20T16:28:50.361Z,0
2022-12-20T16:30:30.118Z,0
2022-12-20T16:32:09.895Z,0
2022-12-20T16:33:49.662Z,0
2022-12-20T16:35:29.408Z,0
2022-12-20T16:37:09.187Z,0
2022-12-20T16:38:48.950Z,0
2022-12-20T16:40:28.716Z,0
2022-12-20T16:42:08.540Z,0
2022-12-20T16:43:48.231Z,0
2022-12-20T16:45:28.075Z,0
2022-12-20T16:47:07.766Z,0
2022-12-20T16:48:47.558Z,0
2022-12-20T16:50:27.294Z,0
2022-12-20T16:52:07.045Z,0
2022-12-20T16:53:46.845Z,0
2022-12-20T16:55:26.589Z,0
2022-12-20T16:57:06.358Z,0
2022-12-20T16:58:46.110Z,0
2022-12-20T17:00:25.870Z,0
2022-12-20T17:02:05.644Z,0
2022-12-20T17:03:45.412Z,0
2022-12-20T17:05:25.165Z,0
2022-12-20T17:07:04.926Z,0
2022-12-20T17:10:24.464Z,0
2022-12-20T17:12:04.229Z,0
2022-12-20T17:13:43.982Z,0
2022-12-20T17:15:23.750Z,0
2022-12-20T17:17:03.529Z,0
2022-12-20T17:18:43.295Z,0
2022-12-20T17:20:23.053Z,0
2022-12-20T17:23:42.576Z,0
2022-12-20T17:25:22.331Z,0
2022-12-20T17:27:02.104Z,0
2022-12-20T17:28:41.858Z,0
2022-12-20T17:30:21.634Z,0
2022-12-20T17:32:01.402Z,0
2022-12-20T17:33:41.167Z,0
2022-12-20T17:35:20.916Z,0
2022-12-20T17:37:00.675Z,0
2022-12-20T17:38:40.453Z,0
2022-12-20T17:40:20.210Z,0
2022-12-20T17:41:59.975Z,0
2022-12-20T17:43:39.749Z,0
2022-12-20T17:45:19.580Z,0
2022-12-20T17:46:59.258Z,0
2022-12-20T17:48:39.037Z,0
2022-12-20T17:50:18.801Z,0
2022-12-20T17:51:58.553Z,0
2022-12-20T17:53:38.327Z,0
2022-12-20T17:55:18.088Z,0
2022-12-20T17:56:57.866Z,0
2022-12-20T17:58:37.618Z,0
2022-12-20T18:00:17.368Z,0
2022-12-20T18:01:57.152Z,0
2022-12-20T18:03:36.904Z,0
2022-12-20T18:05:16.663Z,0
2022-12-20T18:06:56.475Z,0
2022-12-20T18:08:36.209Z,0
2022-12-20T18:10:15.992Z,0
2022-12-20T18:11:55.720Z,0
2022-12-20T18:13:35.495Z,0
2022-12-20T18:15:15.253Z,0
2022-12-20T18:16:55.034Z,0
2022-12-20T18:18:34.796Z,0
2022-12-20T18:20:14.547Z,0
2022-12-20T18:21:54.308Z,0
2022-12-20T18:23:34.075Z,0
2022-12-20T18:25:13.840Z,0
2022-12-20T18:26:53.604Z,0
2022-12-20T18:28:33.363Z,0
2022-12-20T18:30:13.147Z,0
2022-12-20T18:31:52.891Z,0
2022-12-20T18:33:32.648Z,0
2022-12-20T18:35:12.431Z,0
2022-12-20T18:36:52.176Z,0
2022-12-20T18:38:31.976Z,0
2022-12-20T18:40:11.708Z,0
2022-12-20T18:41:51.475Z,0
2022-12-20T18:43:31.268Z,0
2022-12-20T18:45:11.019Z,0
2022-12-20T18:46:50.799Z,0
2022-12-20T18:48:30.536Z,0
2022-12-20T18:50:10.283Z,0
2022-12-20T18:51:50.059Z,0
2022-12-20T18:53:29.818Z,0
2022-12-20T18:55:09.585Z,0
2022-12-20T18:56:49.365Z,0
2022-12-20T18:58:29.104Z,0
2022-12-20T19:00:08.883Z,0
2022-12-20T19:01:48.655Z,0
2022-12-20T19:03:28.412Z,0
2022-12-20T19:05:08.168Z,0
2022-12-20T19:06:47.934Z,0
2022-12-20T19:08:27.767Z,0
2022-12-20T19:10:07.485Z,0
2022-12-20T19:11:47.238Z,0
2022-12-20T19:13:27.068Z,0
2022-12-20T19:15:06.770Z,0
2022-12-20T19:16:46.547Z,0
2022-12-20T19:18:26.297Z,0
2022-12-20T19:20:06.053Z,0
2022-12-20T19:21:45.837Z,0
2022-12-20T19:23:25.566Z,0
2022-12-20T19:25:05.328Z,0
2022-12-20T19:26:45.089Z,0
2022-12-20T19:28:24.909Z,0
2022-12-20T19:30:04.600Z,0
2022-12-20T19:31:44.410Z,0
2022-12-20T19:33:24.142Z,0
2022-12-20T19:35:03.911Z,0
2022-12-20T19:36:43.719Z,0
2022-12-20T19:38:23.463Z,0
2022-12-20T19:40:03.307Z,0
2022-12-20T19:41:42.967Z,0
2022-12-20T19:43:22.722Z,0
2022-12-20T19:45:02.516Z,0
2022-12-20T19:46:42.268Z,0
2022-12-20T19:48:22.009Z,0
2022-12-20T19:50:01.797Z,0
2022-12-20T19:51:41.563Z,0
2022-12-20T19:53:21.316Z,0
2022-12-20T19:55:01.099Z,0
2022-12-20T19:56:40.904Z,0
2022-12-20T19:58:20.631Z,0
2022-12-20T20:00:00.367Z,0
2022-12-20T20:01:40.130Z,0
2022-12-20T20:03:19.895Z,0
2022-12-20T20:04:59.667Z,0
2022-12-20T20:06:39.432Z,0
2022-12-20T20:08:19.190Z,0
2022-12-20T20:09:58.966Z,0
2022-12-20T20:11:38.716Z,0
2022-12-20T20:13:18.492Z,0
2022-12-20T20:14:58.249Z,0
2022-12-20T20:16:38.038Z,0
2022-12-20T20:18:17.755Z,0
2022-12-20T20:19:57.546Z,0
2022-12-20T20:21:37.326Z,0
2022-12-20T20:23:17.082Z,0
2022-12-20T20:24:56.837Z,0
2022-12-20T20:26:36.589Z,0
2022-12-20T20:28:16.446Z,0
2022-12-20T20:29:56.116Z,0
2022-12-20T20:31:35.895Z,0
2022-12-20T20:33:15.682Z,0
2022-12-20T20:34:55.586Z,0
2022-12-20T20:36:35.227Z,0
2022-12-20T20:38:14.947Z,0
2022-12-20T20:39:54.701Z,0
2022-12-20T20:41:34.473Z,0
2022-12-20T20:43:14.231Z,0
2022-12-20T20:44:53.998Z,0
2022-12-20T20:46:33.778Z,0
2022-12-20T20:48:13.518Z,0
2022-12-20T20:49:53.293Z,0
2022-12-20T20:51:33.100Z,0
2022-12-20T20:53:12.830Z,0
2022-12-20T20:54:52.568Z,0
2022-12-20T20:56:32.396Z,0
2022-12-20T20:58:12.099Z,0
2022-12-20T20:59:51.862Z,0
2022-12-20T21:01:31.642Z,0
2022-12-20T21:03:11.387Z,0
2022-12-20T21:04:51.175Z,0
2022-12-20T21:06:30.923Z,0
2022-12-20T21:08:10.753Z,0
2022-12-20T21:09:50.440Z,0
2022-12-20T21:11:30.218Z,0
2022-12-20T21:13:09.980Z,0
2022-12-20T21:14:49.757Z,0
2022-12-20T21:16:29.506Z,0
2022-12-20T21:18:09.276Z,0
2022-12-20T21:19:49.046Z,0
2022-12-20T21:21:28.805Z,0
2022-12-20T21:23:08.586Z,0
2022-12-20T21:24:48.324Z,0
2022-12-20T21:26:28.077Z,0
2022-12-20T21:28:07.886Z,0
2022-12-20T21:29:47.605Z,0
2022-12-20T21:31:27.396Z,0
2022-12-20T21:33:07.140Z,0
2022-12-20T21:34:46.904Z,0
2022-12-20T21:36:26.728Z,0
2022-12-20T21:38:06.481Z,0
2022-12-20T21:39:46.200Z,0
2022-12-20T21:41:25.967Z,0
2022-12-20T21:43:05.717Z,0
2022-12-20T21:44:45.501Z,0
2022-12-20T21:46:25.246Z,0
2022-12-20T21:48:05.024Z,0
2022-12-20T21:49:44.781Z,0
2022-12-20T21:51:24.557Z,0
2022-12-20T21:53:04.316Z,0
2022-12-20T21:54:44.080Z,0
2022-12-20T21:56:23.837Z,0
2022-12-20T21:58:03.608Z,0
2022-12-20T21:59:43.362Z,0
2022-12-20T22:01:23.146Z,0
2022-12-20T22:03:02.953Z,0
2022-12-20T22:04:42.666Z,0
2022-12-20T22:06:22.432Z,0
2022-12-20T22:08:02.202Z,0
2022-12-20T22:09:41.983Z,0
2022-12-20T22:11:21.706Z,0
2022-12-20T22:13:01.479Z,0
2022-12-20T22:14:41.246Z,0
2022-12-20T22:16:21.086Z,0
2022-12-20T22:18:00.769Z,0
2022-12-20T22:19:40.550Z,0
2022-12-20T22:21:20.301Z,0
2022-12-20T22:23:00.139Z,0
2022-12-20T22:24:39.920Z,0
2022-12-20T22:26:19.622Z,0
2022-12-20T22:27:59.355Z,0
2022-12-20T22:29:39.143Z,0
2022-12-20T22:31:18.902Z,0
2022-12-20T22:32:58.639Z,0
2022-12-20T22:34:38.418Z,0
2022-12-20T22:36:18.221Z,0
2022-12-20T22:37:57.931Z,0
2022-12-20T22:39:37.775Z,0
2022-12-20T22:41:17.481Z,0
2022-12-20T22:42:57.281Z,0
2022-12-20T22:44:36.994Z,0
2022-12-20T22:46:16.781Z,0
2022-12-20T22:47:56.511Z,0
2022-12-20T22:49:36.283Z,0
2022-12-20T22:51:16.118Z,0
2022-12-20T22:52:55.822Z,0
2022-12-20T22:54:35.601Z,0
2022-12-20T22:56:15.335Z,0
2022-12-20T22:57:55.089Z,0
2022-12-20T22:59:34.864Z,0
2022-12-20T23:01:14.653Z,0
2022-12-20T23:02:54.383Z,0
2022-12-20T23:04:34.167Z,0
2022-12-20T23:06:13.987Z,0
2022-12-20T23:07:53.711Z,0
2022-12-20T23:09:33.440Z,0
2022-12-20T23:11:13.216Z,0
2022-12-20T23:12:52.970Z,0
2022-12-20T23:14:32.735Z,0
2022-12-20T23:16:12.505Z,0
2022-12-20T23:17:52.262Z,0
2022-12-20T23:19:32.025Z,0
2022-12-20T23:21:11.796Z,0
2022-12-20T23:22:51.565Z,0
2022-12-20T23:24:31.321Z,0
2022-12-20T23:26:11.091Z,0
2022-12-20T23:27:50.854Z,0
2022-12-20T23:29:30.617Z,0
2022-12-20T23:31:10.393Z,0
2022-12-20T23:32:50.148Z,0
2022-12-20T23:34:29.946Z,0
2022-12-20T23:36:09.680Z,0
2022-12-20T23:37:49.446Z,0
2022-12-20T23:39:29.203Z,0
2022-12-20T23:41:08.972Z,0
2022-12-20T23:42:48.846Z,0
2022-12-20T23:44:28.485Z,0
2022-12-20T23:46:08.263Z,0
2022-12-20T23:47:48.037Z,0
2022-12-20T23:49:27.774Z,0
2022-12-20T23:51:07.539Z,0
2022-12-20T23:52:47.325Z,0
2022-12-20T23:54:27.081Z,0
2022-12-20T23:56:06.837Z,0
2022-12-20T23:57:46.598Z,0
2022-12-20T23:59:26.376Z,0
